Time;durP1;ratioP1;P1;durP2;ratioP2;P2;SDS_P1;SDS_P2;PMS_P1;PMS_P2;Temp;Humidity;BMP_temperature;BMP_pressure;BME280_temperature;BME280_humidity;BME280_pressure;Samples;Min_cycle;Max_cycle;Signal;HPM_P1;HPM_P2
2022/08/18 00:01:18;;;;;;;6.18;4.30;;;;;;;;;;5040889;28;20485;-76
2022/08/18 00:03:44;;;;;;;5.75;3.83;;;;;;;;;;5024620;28;20059;-74
2022/08/18 00:06:10;;;;;;;6.28;4.43;;;;;;;;;;5039778;28;20051;-76
2022/08/18 00:08:35;;;;;;;4.43;3.85;;;;;;;;;;5025249;28;20056;-74
2022/08/18 00:11:01;;;;;;;9.93;5.22;;;;;;;;;;5042449;28;20107;-75
2022/08/18 00:13:26;;;;;;;9.10;5.90;;;;;;;;;;5042688;28;20396;-74
2022/08/18 00:15:52;;;;;;;6.22;5.15;;;;;;;;;;5041019;28;20055;-74
2022/08/18 00:18:17;;;;;;;10.77;5.18;;;;;;;;;;5041372;28;20063;-75
2022/08/18 00:20:43;;;;;;;8.52;5.82;;;;;;;;;;5042188;28;20060;-73
2022/08/18 00:23:09;;;;;;;10.45;5.00;;;;;;;;;;5042505;28;20053;-75
2022/08/18 00:25:35;;;;;;;8.27;5.70;;;;;;;;;;5040698;28;20053;-74
2022/08/18 00:28:01;;;;;;;7.90;5.15;;;;;;;;;;5042064;28;20423;-74
2022/08/18 00:30:27;;;;;;;9.02;5.55;;;;;;;;;;5023254;28;20044;-76
2022/08/18 00:32:55;;;;;;;9.95;5.22;;;;;;;;;;5039955;28;20081;-75
2022/08/18 00:35:27;;;;;;;8.98;4.90;;;;;;;;;;5040677;28;20060;-75
2022/08/18 00:37:54;;;;;;;;;;;;;;;;;;5040509;28;20087;-76
2022/08/18 00:40:24;;;;;;;7.40;5.13;;;;;;;;;;5023356;28;19927;-75
2022/08/18 00:42:54;;;;;;;7.65;5.05;;;;;;;;;;5023714;28;20053;-75
2022/08/18 00:45:28;;;;;;;8.68;5.07;;;;;;;;;;5023779;28;20041;-75
2022/08/18 00:47:54;;;;;;;7.50;4.85;;;;;;;;;;5040136;28;20053;-74
2022/08/18 00:50:36;;;;;;;8.23;4.85;;;;;;;;;;5038686;28;20102;-74
2022/08/18 00:53:09;;;;;;;7.82;4.82;;;;;;;;;;5023911;28;20080;-75
2022/08/18 00:55:35;;;;;;;8.32;4.57;;;;;;;;;;5040110;28;20471;-75
2022/08/18 00:58:10;;;;;;;5.15;4.60;;;;;;;;;;5040633;28;20049;-75
2022/08/18 01:00:42;;;;;;;9.68;4.65;;;;;;;;;;5024560;28;20055;-74
2022/08/18 01:03:13;;;;;;;6.93;3.92;;;;;;;;;;5041374;28;20055;-74
2022/08/18 01:05:44;;;;;;;6.63;4.80;;;;;;;;;;5041500;28;20045;-73
2022/08/18 01:08:15;;;;;;;5.68;4.43;;;;;;;;;;5029291;28;20044;-73
2022/08/18 01:10:42;;;;;;;5.60;4.28;;;;;;;;;;5022610;28;20072;-72
2022/08/18 01:13:08;;;;;;;5.75;4.18;;;;;;;;;;5041890;28;20060;-73
2022/08/18 01:15:34;;;;;;;8.98;3.70;;;;;;;;;;5040862;28;20145;-74
2022/08/18 01:23:53;;;;;;;5.85;3.75;;;;;;;;;;5041341;28;20073;-72
2022/08/18 01:26:21;;;;;;;10.15;4.38;;;;;;;;;;5038828;28;20040;-73
2022/08/18 01:28:48;;;;;;;7.45;3.88;;;;;;;;;;5041091;28;20530;-72
2022/08/18 01:31:36;;;;;;;6.03;4.10;;;;;;;;;;5040442;28;20045;-72
2022/08/18 01:34:03;;;;;;;5.00;3.83;;;;;;;;;;5040022;28;20503;-72
2022/08/18 01:36:29;;;;;;;5.22;3.92;;;;;;;;;;5038535;28;20053;-72
2022/08/18 01:38:55;;;;;;;8.18;4.00;;;;;;;;;;5041160;28;20048;-73
2022/08/18 01:41:21;;;;;;;4.53;3.92;;;;;;;;;;5040614;28;20044;-72
2022/08/18 01:43:48;;;;;;;5.50;4.28;;;;;;;;;;5036263;28;21174;-73
2022/08/18 01:46:18;;;;;;;5.40;4.05;;;;;;;;;;5039006;28;20380;-72
2022/08/18 01:48:45;;;;;;;7.45;4.78;;;;;;;;;;5041047;28;20106;-72
2022/08/18 01:51:12;;;;;;;4.53;4.03;;;;;;;;;;5040602;28;20041;-72
2022/08/18 01:53:37;;;;;;;5.07;4.47;;;;;;;;;;5039654;28;20127;-72
2022/08/18 01:56:04;;;;;;;10.35;5.00;;;;;;;;;;5038085;28;20140;-73
2022/08/18 01:58:31;;;;;;;6.93;4.82;;;;;;;;;;5039213;28;20045;-73
2022/08/18 02:01:00;;;;;;;6.03;4.45;;;;;;;;;;5039188;28;20052;-73
2022/08/18 02:03:34;;;;;;;7.00;4.97;;;;;;;;;;5040692;28;20064;-73
2022/08/18 02:06:08;;;;;;;7.28;5.10;;;;;;;;;;5039671;28;20044;-72
2022/08/18 02:08:34;;;;;;;6.43;4.53;;;;;;;;;;5040363;28;20044;-73
2022/08/18 02:11:00;;;;;;;6.78;4.40;;;;;;;;;;5038139;28;20052;-73
2022/08/18 02:13:25;;;;;;;5.68;4.93;;;;;;;;;;5039093;28;20064;-73
2022/08/18 02:15:52;;;;;;;6.70;4.88;;;;;;;;;;5039476;28;20120;-72
2022/08/18 02:18:21;;;;;;;10.85;5.18;;;;;;;;;;5039326;28;20411;-73
2022/08/18 02:20:46;;;;;;;5.55;4.55;;;;;;;;;;5040287;28;20723;-73
2022/08/18 02:23:12;;;;;;;7.47;5.00;;;;;;;;;;5040174;28;20128;-72
2022/08/18 02:25:40;;;;;;;9.68;4.70;;;;;;;;;;5040128;28;20053;-73
2022/08/18 02:28:06;;;;;;;5.75;4.47;;;;;;;;;;5038980;28;20075;-73
2022/08/18 02:30:33;;;;;;;5.00;4.50;;;;;;;;;;5040186;28;20073;-73
2022/08/18 02:33:00;;;;;;;6.25;4.60;;;;;;;;;;5040308;28;20122;-73
2022/08/18 02:35:26;;;;;;;4.97;4.45;;;;;;;;;;5039834;28;20504;-73
2022/08/18 02:37:51;;;;;;;6.10;4.63;;;;;;;;;;5039779;28;20053;-73
2022/08/18 02:40:17;;;;;;;7.88;4.07;;;;;;;;;;5039273;28;20059;-73
2022/08/18 02:42:45;;;;;;;5.80;4.57;;;;;;;;;;5040074;28;20053;-74
2022/08/18 02:45:12;;;;;;;4.88;4.30;;;;;;;;;;5039747;28;20411;-73
2022/08/18 02:47:38;;;;;;;5.28;4.75;;;;;;;;;;5040352;28;20071;-73
2022/08/18 02:50:05;;;;;;;6.80;4.53;;;;;;;;;;5037988;28;20497;-72
2022/08/18 02:52:31;;;;;;;4.35;3.85;;;;;;;;;;5038296;28;20179;-73
2022/08/18 02:55:00;;;;;;;5.35;4.22;;;;;;;;;;5039651;28;20067;-73
2022/08/18 02:57:27;;;;;;;4.43;4.03;;;;;;;;;;5044043;28;20084;-73
2022/08/18 02:59:53;;;;;;;4.50;4.10;;;;;;;;;;5042607;28;20214;-73
2022/08/18 03:02:19;;;;;;;5.63;4.38;;;;;;;;;;5042271;28;20230;-72
2022/08/18 03:04:45;;;;;;;5.25;4.20;;;;;;;;;;5042517;28;20052;-72
2022/08/18 03:07:11;;;;;;;5.28;4.32;;;;;;;;;;5042531;28;20056;-72
2022/08/18 03:09:36;;;;;;;6.38;4.45;;;;;;;;;;5042446;28;20053;-72
2022/08/18 03:12:02;;;;;;;4.68;4.18;;;;;;;;;;5040932;28;20045;-72
2022/08/18 03:14:28;;;;;;;6.03;4.53;;;;;;;;;;5042028;28;20578;-72
2022/08/18 03:16:53;;;;;;;8.13;4.80;;;;;;;;;;5043480;28;20071;-72
2022/08/18 03:19:19;;;;;;;7.60;4.60;;;;;;;;;;5043508;28;20037;-72
2022/08/18 03:21:46;;;;;;;8.65;4.55;;;;;;;;;;5042052;28;20518;-72
2022/08/18 03:24:13;;;;;;;5.28;4.20;;;;;;;;;;5042666;28;20072;-72
2022/08/18 03:26:41;;;;;;;6.60;4.55;;;;;;;;;;5043285;28;20512;-73
2022/08/18 03:29:07;;;;;;;4.80;4.10;;;;;;;;;;5043428;28;20039;-73
2022/08/18 03:31:33;;;;;;;6.47;4.13;;;;;;;;;;5042742;28;20057;-72
2022/08/18 03:34:00;;;;;;;5.90;4.20;;;;;;;;;;5042817;28;20053;-72
2022/08/18 03:36:30;;;;;;;6.03;4.03;;;;;;;;;;5041142;28;20052;-72
2022/08/18 03:38:57;;;;;;;4.78;4.15;;;;;;;;;;5041978;28;20041;-72
2022/08/18 03:41:25;;;;;;;5.93;4.78;;;;;;;;;;5041867;28;20427;-72
2022/08/18 03:43:51;;;;;;;8.82;4.45;;;;;;;;;;5041181;28;20202;-72
2022/08/18 03:46:19;;;;;;;4.70;4.10;;;;;;;;;;5055342;28;20446;-72
2022/08/18 03:48:46;;;;;;;6.28;3.97;;;;;;;;;;5042680;28;20059;-73
2022/08/18 03:51:18;;;;;;;4.88;4.03;;;;;;;;;;5042521;28;20063;-72
2022/08/18 03:53:45;;;;;;;7.00;4.35;;;;;;;;;;5042366;28;20059;-72
2022/08/18 03:56:15;;;;;;;4.28;3.58;;;;;;;;;;5036174;28;20057;-72
2022/08/18 03:58:44;;;;;;;5.00;4.00;;;;;;;;;;5040456;28;20148;-72
2022/08/18 04:01:15;;;;;;;5.50;4.35;;;;;;;;;;5040781;28;20049;-72
2022/08/18 04:03:42;;;;;;;5.28;4.07;;;;;;;;;;5041136;28;20415;-72
2022/08/18 04:06:13;;;;;;;5.57;3.92;;;;;;;;;;5040311;28;20500;-73
2022/08/18 04:08:38;;;;;;;10.95;3.88;;;;;;;;;;5041691;28;20048;-72
2022/08/18 04:11:05;;;;;;;5.57;3.95;;;;;;;;;;5042838;28;20037;-72
2022/08/18 04:13:35;;;;;;;4.50;4.10;;;;;;;;;;5041283;28;20049;-72
2022/08/18 04:16:00;;;;;;;5.18;3.60;;;;;;;;;;5040472;28;20483;-73
2022/08/18 04:18:27;;;;;;;5.50;4.07;;;;;;;;;;5040169;28;20049;-72
2022/08/18 04:20:52;;;;;;;5.80;3.92;;;;;;;;;;5041992;28;20057;-72
2022/08/18 04:23:18;;;;;;;5.35;4.07;;;;;;;;;;5042358;28;20039;-73
2022/08/18 04:25:43;;;;;;;4.60;4.13;;;;;;;;;;5040573;28;20377;-73
2022/08/18 04:28:09;;;;;;;5.88;3.75;;;;;;;;;;5041206;28;20047;-73
2022/08/18 04:30:36;;;;;;;4.40;3.85;;;;;;;;;;5040420;28;20045;-73
2022/08/18 04:33:01;;;;;;;5.20;3.70;;;;;;;;;;5042244;28;20237;-73
2022/08/18 04:35:28;;;;;;;3.88;3.55;;;;;;;;;;5042016;28;21087;-74
2022/08/18 04:37:53;;;;;;;5.15;4.00;;;;;;;;;;5040742;28;20053;-74
2022/08/18 04:40:19;;;;;;;4.82;4.22;;;;;;;;;;5040757;28;20052;-72
2022/08/18 04:42:45;;;;;;;6.95;4.07;;;;;;;;;;5041893;28;20060;-73
2022/08/18 04:45:11;;;;;;;3.92;3.53;;;;;;;;;;5041540;28;20059;-73
2022/08/18 04:47:40;;;;;;;4.32;3.60;;;;;;;;;;5040741;28;20049;-73
2022/08/18 04:50:06;;;;;;;4.65;3.80;;;;;;;;;;5041132;28;20052;-73
2022/08/18 04:55:16;;;;;;;5.68;4.32;;;;;;;;;;5041425;28;20044;-73
2022/08/18 04:57:41;;;;;;;5.43;3.70;;;;;;;;;;5041972;28;20053;-73
2022/08/18 05:00:10;;;;;;;4.32;3.92;;;;;;;;;;5040828;28;20596;-73
2022/08/18 05:02:36;;;;;;;4.55;3.60;;;;;;;;;;5040636;28;20048;-73
2022/08/18 05:05:02;;;;;;;3.47;3.17;;;;;;;;;;5040738;28;20048;-73
2022/08/18 05:07:28;;;;;;;4.07;3.67;;;;;;;;;;5040858;28;20041;-73
2022/08/18 05:09:53;;;;;;;4.43;3.70;;;;;;;;;;5037593;28;20045;-73
2022/08/18 05:12:19;;;;;;;4.25;3.83;;;;;;;;;;5039732;28;20047;-73
2022/08/18 05:14:45;;;;;;;4.60;3.78;;;;;;;;;;5040603;28;20103;-74
2022/08/18 05:17:12;;;;;;;4.30;3.72;;;;;;;;;;5040129;28;20149;-73
2022/08/18 05:19:37;;;;;;;4.47;3.13;;;;;;;;;;5040587;28;20472;-73
2022/08/18 05:22:06;;;;;;;3.67;3.38;;;;;;;;;;5041124;28;20044;-73
2022/08/18 05:24:34;;;;;;;4.53;3.45;;;;;;;;;;5038585;28;20107;-73
2022/08/18 05:27:00;;;;;;;4.53;3.33;;;;;;;;;;5039443;28;20138;-74
2022/08/18 05:29:26;;;;;;;3.88;3.42;;;;;;;;;;5039935;28;20132;-74
2022/08/18 05:31:52;;;;;;;5.32;3.30;;;;;;;;;;5040620;28;20094;-74
2022/08/18 05:34:20;;;;;;;4.80;3.53;;;;;;;;;;5037971;28;20606;-74
2022/08/18 05:36:49;;;;;;;4.50;3.63;;;;;;;;;;5040972;28;20056;-74
2022/08/18 05:39:23;;;;;;;3.88;3.47;;;;;;;;;;5038250;28;20569;-74
2022/08/18 05:42:14;;;;;;;5.90;3.47;;;;;;;;;;5039126;28;20047;-73
2022/08/18 05:44:45;;;;;;;4.80;3.50;;;;;;;;;;5020364;28;20053;-73
2022/08/18 05:47:28;;;;;;;5.72;3.70;;;;;;;;;;5038243;28;20102;-73
2022/08/18 05:49:57;;;;;;;6.25;3.40;;;;;;;;;;5039137;28;20044;-73
2022/08/18 05:52:39;;;;;;;3.55;3.15;;;;;;;;;;5038101;28;20123;-73
2022/08/18 05:58:22;;;;;;;3.85;3.55;;;;;;;;;;5038351;28;20749;-74
2022/08/18 06:00:55;;;;;;;5.38;3.33;;;;;;;;;;4992661;28;20048;-73
2022/08/18 06:03:30;;;;;;;5.05;3.75;;;;;;;;;;5038878;28;20067;-73
2022/08/18 06:06:00;;;;;;;5.10;4.00;;;;;;;;;;5037042;28;20077;-74
2022/08/18 06:08:35;;;;;;;4.38;3.63;;;;;;;;;;5036325;28;20052;-73
2022/08/18 06:11:00;;;;;;;4.55;4.07;;;;;;;;;;5038416;28;20063;-73
2022/08/18 06:13:26;;;;;;;5.00;3.70;;;;;;;;;;5040896;28;20044;-73
2022/08/18 06:16:12;;;;;;;4.47;3.63;;;;;;;;;;5040135;28;20045;-74
2022/08/18 06:18:53;;;;;;;6.22;3.63;;;;;;;;;;5038246;28;20117;-73
2022/08/18 06:21:24;;;;;;;4.82;3.88;;;;;;;;;;5040044;28;20075;-73
2022/08/18 06:23:55;;;;;;;3.83;3.38;;;;;;;;;;5040213;28;20052;-73
2022/08/18 06:26:33;;;;;;;3.58;3.20;;;;;;;;;;5039101;28;20049;-74
2022/08/18 06:29:23;;;;;;;3.97;3.38;;;;;;;;;;5038462;28;20671;-73
2022/08/18 06:32:02;;;;;;;3.53;3.03;;;;;;;;;;5033733;28;20073;-73
2022/08/18 06:34:39;;;;;;;3.70;3.40;;;;;;;;;;5039843;28;20080;-73
2022/08/18 06:37:29;;;;;;;5.15;3.67;;;;;;;;;;5039961;28;20446;-73
2022/08/18 06:39:55;;;;;;;4.85;3.55;;;;;;;;;;5040275;28;20616;-71
2022/08/18 06:42:30;;;;;;;4.35;3.58;;;;;;;;;;5038826;28;20563;-71
2022/08/18 06:45:11;;;;;;;5.15;4.28;;;;;;;;;;5039526;28;20458;-75
2022/08/18 06:48:02;;;;;;;4.37;3.97;;;;;;;;;;5040332;28;20530;-72
2022/08/18 06:50:33;;;;;;;6.28;3.88;;;;;;;;;;5039007;28;20859;-72
2022/08/18 06:53:08;;;;;;;;;;;;;;;;;;5039985;28;20789;-72
2022/08/18 06:55:43;;;;;;;4.70;4.03;;;;;;;;;;5039780;28;19924;-75
2022/08/18 06:58:12;;;;;;;4.78;4.03;;;;;;;;;;5039752;28;20041;-71
2022/08/18 07:00:42;;;;;;;6.50;4.07;;;;;;;;;;5040460;28;20061;-71
2022/08/18 07:03:20;;;;;;;5.00;4.30;;;;;;;;;;5039472;28;20124;-72
2022/08/18 07:06:01;;;;;;;6.15;3.67;;;;;;;;;;5039798;28;20045;-76
2022/08/18 07:08:40;;;;;;;6.30;3.80;;;;;;;;;;5040019;28;20221;-72
2022/08/18 07:11:24;;;;;;;4.53;3.55;;;;;;;;;;5039424;28;20047;-73
2022/08/18 07:13:53;;;;;;;4.50;3.55;;;;;;;;;;5038098;28;20041;-73
2022/08/18 07:16:29;;;;;;;4.13;3.72;;;;;;;;;;5036814;28;20478;-74
2022/08/18 07:19:07;;;;;;;4.60;3.25;;;;;;;;;;5038430;28;20056;-74
2022/08/18 07:21:36;;;;;;;4.10;3.70;;;;;;;;;;5037707;28;20422;-75
2022/08/18 07:24:29;;;;;;;10.43;4.05;;;;;;;;;;5039627;28;20059;-73
2022/08/18 07:27:03;;;;;;;3.42;3.13;;;;;;;;;;5036760;28;20103;-73
2022/08/18 07:29:32;;;;;;;4.63;3.38;;;;;;;;;;5039480;28;20064;-72
2022/08/18 07:32:03;;;;;;;4.15;3.75;;;;;;;;;;5039044;28;20469;-73
2022/08/18 07:34:35;;;;;;;3.35;2.95;;;;;;;;;;5038988;28;20048;-73
2022/08/18 07:37:11;;;;;;;4.00;3.35;;;;;;;;;;5038618;28;20159;-74
2022/08/18 07:39:41;;;;;;;7.80;3.47;;;;;;;;;;5040015;28;20565;-71
2022/08/18 07:42:37;;;;;;;4.35;3.33;;;;;;;;;;5038774;28;20049;-75
2022/08/18 07:45:18;;;;;;;5.72;3.60;;;;;;;;;;5040408;28;20051;-73
2022/08/18 07:48:18;;;;;;;4.60;3.60;;;;;;;;;;5041940;28;20218;-73
2022/08/18 07:51:12;;;;;;;3.58;3.28;;;;;;;;;;5016672;28;20071;-73
2022/08/18 07:54:07;;;;;;;4.78;3.42;;;;;;;;;;5042911;28;20136;-73
2022/08/18 07:56:42;;;;;;;15.35;3.53;;;;;;;;;;5040371;28;20609;-72
2022/08/18 07:59:25;;;;;;;3.25;2.95;;;;;;;;;;5042916;28;20159;-75
2022/08/18 08:01:59;;;;;;;3.35;3.00;;;;;;;;;;5042093;28;20064;-74
2022/08/18 08:04:46;;;;;;;5.43;2.90;;;;;;;;;;5041046;28;20041;-72
2022/08/18 08:07:24;;;;;;;4.03;3.45;;;;;;;;;;5042403;28;20045;-73
2022/08/18 08:10:04;;;;;;;3.92;3.58;;;;;;;;;;5040302;28;20120;-74
2022/08/18 08:12:48;;;;;;;5.80;3.67;;;;;;;;;;5041486;28;20091;-71
2022/08/18 08:15:39;;;;;;;5.20;3.60;;;;;;;;;;5041537;28;20072;-76
2022/08/18 08:18:24;;;;;;;4.03;3.50;;;;;;;;;;5040234;28;20159;-71
2022/08/18 08:21:04;;;;;;;5.53;3.20;;;;;;;;;;5039377;28;20055;-71
2022/08/18 08:24:15;;;;;;;3.55;3.25;;;;;;;;;;5040851;28;20059;-72
2022/08/18 08:26:46;;;;;;;9.25;3.55;;;;;;;;;;4987710;28;20040;-70
2022/08/18 08:29:41;;;;;;;5.07;3.13;;;;;;;;;;5040449;28;20048;-74
2022/08/18 08:32:19;;;;;;;5.75;3.83;;;;;;;;;;5039725;28;20130;-72
2022/08/18 08:34:54;;;;;;;4.63;3.50;;;;;;;;;;5040790;28;20053;-73
2022/08/18 08:37:35;;;;;;;4.68;3.35;;;;;;;;;;5041419;28;20059;-75
2022/08/18 08:40:16;;;;;;;3.92;3.58;;;;;;;;;;5042325;28;20496;-73
2022/08/18 08:42:57;;;;;;;3.60;3.30;;;;;;;;;;5038935;28;20049;-72
2022/08/18 08:45:28;;;;;;;4.35;3.50;;;;;;;;;;5040266;28;20683;-73
2022/08/18 08:48:03;;;;;;;5.22;3.40;;;;;;;;;;5042102;28;20049;-74
2022/08/18 08:50:34;;;;;;;5.38;2.85;;;;;;;;;;5039928;28;20499;-74
2022/08/18 08:53:07;;;;;;;4.70;3.60;;;;;;;;;;5026431;28;20139;-74
2022/08/18 08:55:36;;;;;;;6.40;3.10;;;;;;;;;;5041352;28;20416;-73
2022/08/18 08:58:25;;;;;;;8.52;3.22;;;;;;;;;;5041948;28;20041;-74
2022/08/18 09:00:51;;;;;;;4.85;3.10;;;;;;;;;;5019509;28;20056;-73
2022/08/18 09:03:21;;;;;;;4.28;2.75;;;;;;;;;;5040599;28;20553;-72
2022/08/18 09:06:04;;;;;;;3.45;3.15;;;;;;;;;;5041433;28;20075;-74
2022/08/18 09:08:46;;;;;;;4.63;3.05;;;;;;;;;;5023418;28;20057;-74
2022/08/18 09:11:31;;;;;;;3.67;2.70;;;;;;;;;;5040969;28;20043;-73
2022/08/18 09:13:59;;;;;;;5.65;3.25;;;;;;;;;;5042035;28;20041;-74
2022/08/18 09:16:47;;;;;;;4.18;3.00;;;;;;;;;;5040288;28;20053;-71
2022/08/18 09:19:15;;;;;;;4.38;3.10;;;;;;;;;;5041279;28;20677;-74
2022/08/18 09:21:59;;;;;;;3.90;3.10;;;;;;;;;;5040538;28;20060;-76
2022/08/18 09:24:29;;;;;;;4.10;2.97;;;;;;;;;;5040739;28;20048;-74
2022/08/18 09:27:01;;;;;;;6.18;3.00;;;;;;;;;;5040762;28;20079;-73
2022/08/18 09:29:36;;;;;;;4.15;3.00;;;;;;;;;;5040980;28;20673;-74
2022/08/18 09:32:19;;;;;;;4.32;3.60;;;;;;;;;;5040083;28;20041;-73
2022/08/18 09:34:59;;;;;;;3.33;3.03;;;;;;;;;;5038679;28;20053;-73
2022/08/18 09:37:45;;;;;;;3.30;3.00;;;;;;;;;;5038837;28;20063;-73
2022/08/18 09:43:23;;;;;;;4.43;3.28;;;;;;;;;;5040290;28;20048;-71
2022/08/18 09:45:54;;;;;;;6.07;3.97;;;;;;;;;;5040381;28;20091;-70
2022/08/18 09:48:34;;;;;;;4.32;3.65;;;;;;;;;;5040015;28;20045;-71
2022/08/18 09:51:09;;;;;;;4.50;3.60;;;;;;;;;;5039872;28;21130;-73
2022/08/18 09:53:47;;;;;;;4.40;3.17;;;;;;;;;;5040711;28;20056;-73
2022/08/18 09:56:14;;;;;;;4.22;3.08;;;;;;;;;;5039605;28;20048;-72
2022/08/18 09:58:55;;;;;;;3.38;3.05;;;;;;;;;;5039953;28;20103;-70
2022/08/18 10:01:36;;;;;;;3.65;3.00;;;;;;;;;;5039652;28;20056;-71
2022/08/18 10:04:15;;;;;;;6.57;3.40;;;;;;;;;;5039191;28;20154;-71
2022/08/18 10:06:44;;;;;;;16.23;3.20;;;;;;;;;;5036955;28;20229;-72
2022/08/18 10:09:18;;;;;;;5.18;3.67;;;;;;;;;;5039657;28;20044;-73
2022/08/18 10:11:55;;;;;;;6.60;3.47;;;;;;;;;;5040294;28;20056;-73
2022/08/18 10:14:37;;;;;;;6.40;3.70;;;;;;;;;;5039621;28;20123;-72
2022/08/18 10:17:11;;;;;;;5.32;3.47;;;;;;;;;;5039780;28;20060;-72
2022/08/18 10:19:51;;;;;;;5.38;3.00;;;;;;;;;;5040453;28;20060;-73
2022/08/18 10:22:37;;;;;;;4.68;3.33;;;;;;;;;;5038796;28;20045;-73
2022/08/18 10:25:03;;;;;;;3.65;3.33;;;;;;;;;;5041353;28;20049;-72
2022/08/18 10:27:43;;;;;;;4.82;3.55;;;;;;;;;;5038686;28;20052;-72
2022/08/18 10:30:32;;;;;;;5.03;3.22;;;;;;;;;;5040475;28;20053;-74
2022/08/18 10:32:58;;;;;;;3.38;3.03;;;;;;;;;;5050374;28;20060;-74
2022/08/18 10:35:35;;;;;;;6.90;2.85;;;;;;;;;;5041340;28;20048;-73
2022/08/18 10:38:12;;;;;;;3.55;2.92;;;;;;;;;;5040036;28;20052;-76
2022/08/18 10:40:42;;;;;;;3.67;3.30;;;;;;;;;;5039085;28;20056;-73
2022/08/18 10:43:31;;;;;;;7.43;3.00;;;;;;;;;;5037128;28;21164;-73
2022/08/18 10:45:56;;;;;;;5.57;3.20;;;;;;;;;;5037780;28;21020;-73
2022/08/18 10:48:23;;;;;;;4.05;3.13;;;;;;;;;;5039437;28;20586;-74
2022/08/18 10:50:59;;;;;;;3.47;3.10;;;;;;;;;;5040094;28;20491;-74
2022/08/18 10:53:38;;;;;;;4.50;3.70;;;;;;;;;;5038962;28;20049;-74
2022/08/18 10:56:26;;;;;;;5.70;2.80;;;;;;;;;;5038318;28;20569;-73
2022/08/18 10:59:08;;;;;;;3.58;3.20;;;;;;;;;;5036880;28;20076;-73
2022/08/18 11:01:48;;;;;;;4.75;3.40;;;;;;;;;;5037516;28;20052;-72
2022/08/18 11:04:39;;;;;;;4.03;3.63;;;;;;;;;;5037831;28;20518;-72
2022/08/18 11:07:14;;;;;;;4.18;3.33;;;;;;;;;;5039843;28;20045;-73
2022/08/18 11:09:41;;;;;;;6.63;4.32;;;;;;;;;;5038587;28;20051;-73
2022/08/18 11:12:09;;;;;;;5.03;3.95;;;;;;;;;;5038319;28;20045;-74
2022/08/18 11:15:05;;;;;;;4.70;3.72;;;;;;;;;;5039251;28;20091;-74
2022/08/18 11:17:55;;;;;;;5.57;3.92;;;;;;;;;;5040094;28;20048;-74
2022/08/18 11:20:26;;;;;;;3.85;3.47;;;;;;;;;;5021613;28;20051;-75
2022/08/18 11:22:55;;;;;;;6.65;3.60;;;;;;;;;;5042360;28;20148;-75
2022/08/18 11:25:31;;;;;;;4.20;3.80;;;;;;;;;;5044339;28;20466;-74
2022/08/18 11:27:59;;;;;;;6.10;3.92;;;;;;;;;;5042941;28;20052;-73
2022/08/18 11:30:29;;;;;;;4.88;3.65;;;;;;;;;;5041233;28;20052;-73
2022/08/18 11:32:54;;;;;;;6.05;3.85;;;;;;;;;;5041449;28;20118;-74
2022/08/18 11:36:02;;;;;;;4.40;3.90;;;;;;;;;;5027282;28;20045;-75
2022/08/18 11:38:30;;;;;;;6.50;3.97;;;;;;;;;;5033965;28;20760;-74
2022/08/18 11:41:17;;;;;;;6.00;4.10;;;;;;;;;;5042822;28;20549;-72
2022/08/18 11:43:44;;;;;;;6.07;3.95;;;;;;;;;;5042957;28;20047;-74
2022/08/18 11:46:19;;;;;;;4.15;3.72;;;;;;;;;;5041676;28;20052;-75
2022/08/18 11:48:48;;;;;;;8.07;4.10;;;;;;;;;;5040979;28;20049;-73
2022/08/18 11:51:23;;;;;;;4.07;3.65;;;;;;;;;;5042025;28;20060;-73
2022/08/18 11:53:49;;;;;;;4.13;3.53;;;;;;;;;;5042210;28;20049;-75
2022/08/18 11:56:17;;;;;;;7.38;3.72;;;;;;;;;;5038193;28;20082;-73
2022/08/18 11:58:55;;;;;;;4.05;3.65;;;;;;;;;;5041809;28;20137;-74
2022/08/18 12:01:30;;;;;;;5.45;4.05;;;;;;;;;;5039016;28;20045;-72
2022/08/18 12:03:58;;;;;;;6.82;3.97;;;;;;;;;;5023853;28;20068;-75
2022/08/18 12:06:28;;;;;;;6.18;3.80;;;;;;;;;;5039413;28;20040;-73
2022/08/18 12:08:58;;;;;;;4.38;3.92;;;;;;;;;;5040556;28;20041;-74
2022/08/18 12:11:27;;;;;;;5.45;3.58;;;;;;;;;;5041155;28;20048;-75
2022/08/18 12:14:03;;;;;;;7.70;3.70;;;;;;;;;;5040720;28;20052;-74
2022/08/18 12:16:47;;;;;;;8.07;3.90;;;;;;;;;;5039552;28;20503;-74
2022/08/18 12:19:14;;;;;;;4.55;3.88;;;;;;;;;;5024020;28;20502;-75
2022/08/18 12:21:42;;;;;;;4.22;3.40;;;;;;;;;;5041025;28;20175;-75
2022/08/18 12:24:19;;;;;;;6.68;3.70;;;;;;;;;;5042230;28;20075;-72
2022/08/18 12:26:44;;;;;;;4.28;3.78;;;;;;;;;;5023686;28;20060;-74
2022/08/18 12:29:09;;;;;;;5.07;3.38;;;;;;;;;;5040917;28;20400;-72
2022/08/18 12:31:35;;;;;;;4.10;3.13;;;;;;;;;;5041402;28;20124;-73
2022/08/18 12:34:00;;;;;;;3.85;3.30;;;;;;;;;;5041514;28;20138;-72
2022/08/18 12:36:27;;;;;;;3.20;2.97;;;;;;;;;;5039987;28;20047;-72
2022/08/18 12:38:52;;;;;;;4.05;3.53;;;;;;;;;;5042106;28;20066;-72
2022/08/18 12:41:17;;;;;;;4.53;3.15;;;;;;;;;;5040488;28;20118;-71
2022/08/18 12:43:43;;;;;;;4.60;3.78;;;;;;;;;;5040878;28;20049;-72
2022/08/18 12:46:08;;;;;;;5.25;3.20;;;;;;;;;;5041349;28;20056;-72
2022/08/18 12:48:36;;;;;;;5.20;3.42;;;;;;;;;;5039872;28;20517;-72
2022/08/18 12:51:42;;;;;;;5.70;3.50;;;;;;;;;;5043929;28;20427;-75
2022/08/18 12:54:34;;;;;;;;;;;;;;;;;;5040036;28;20817;-74
2022/08/18 12:57:01;;;;;;;4.15;3.40;;;;;;;;;;5049299;28;20015;-73
2022/08/18 12:59:27;;;;;;;3.95;3.22;;;;;;;;;;5041976;28;20158;-75
2022/08/18 13:01:53;;;;;;;5.72;3.38;;;;;;;;;;5041014;28;20539;-74
2022/08/18 13:04:18;;;;;;;3.92;3.60;;;;;;;;;;5040966;28;20110;-74
2022/08/18 13:06:51;;;;;;;3.88;3.47;;;;;;;;;;5039664;28;20053;-75
2022/08/18 13:09:17;;;;;;;6.28;4.20;;;;;;;;;;5039868;28;20045;-75
2022/08/18 13:11:42;;;;;;;6.53;4.10;;;;;;;;;;5041026;28;20060;-75
2022/08/18 13:14:08;;;;;;;4.45;4.05;;;;;;;;;;5023517;28;20033;-76
2022/08/18 13:16:36;;;;;;;7.45;4.40;;;;;;;;;;5039513;28;20063;-75
2022/08/18 13:19:02;;;;;;;6.55;3.88;;;;;;;;;;5040197;28;20049;-75
2022/08/18 13:21:28;;;;;;;8.10;4.60;;;;;;;;;;5040847;28;20047;-75
2022/08/18 13:23:54;;;;;;;9.68;4.78;;;;;;;;;;5041103;28;20076;-75
2022/08/18 13:26:46;;;;;;;4.32;3.92;;;;;;;;;;5045268;28;20036;-75
2022/08/18 13:29:15;;;;;;;11.57;4.60;;;;;;;;;;5037196;28;20052;-77
2022/08/18 13:31:41;;;;;;;4.05;3.65;;;;;;;;;;5040282;28;20048;-73
2022/08/18 13:34:07;;;;;;;4.63;4.22;;;;;;;;;;5039796;28;20051;-74
2022/08/18 13:36:46;;;;;;;5.35;4.85;;;;;;;;;;5041275;28;20052;-73
2022/08/18 13:39:15;;;;;;;4.85;4.20;;;;;;;;;;5040138;28;20398;-74
2022/08/18 13:41:42;;;;;;;6.00;4.20;;;;;;;;;;5040544;28;20057;-75
2022/08/18 13:44:10;;;;;;;5.80;4.20;;;;;;;;;;5040645;28;20497;-74
2022/08/18 13:46:44;;;;;;;6.30;4.22;;;;;;;;;;5041148;28;20048;-74
2022/08/18 13:49:10;;;;;;;7.03;4.30;;;;;;;;;;5041502;28;20075;-71
2022/08/18 13:51:35;;;;;;;6.18;4.32;;;;;;;;;;5040465;28;20727;-72
2022/08/18 13:54:01;;;;;;;5.50;4.45;;;;;;;;;;5041547;28;20056;-74
2022/08/18 13:56:26;;;;;;;6.70;4.70;;;;;;;;;;5038448;28;20052;-72
2022/08/18 13:58:52;;;;;;;5.30;4.40;;;;;;;;;;5040364;28;20415;-73
2022/08/18 14:01:18;;;;;;;4.20;3.72;;;;;;;;;;5039259;28;20040;-73
2022/08/18 14:03:43;;;;;;;7.55;4.03;;;;;;;;;;5039376;28;20398;-73
2022/08/18 14:06:09;;;;;;;9.57;4.07;;;;;;;;;;5040027;28;20029;-73
2022/08/18 14:08:35;;;;;;;5.80;4.75;;;;;;;;;;5039725;28;20126;-73
2022/08/18 14:11:02;;;;;;;6.28;4.03;;;;;;;;;;5039892;28;20388;-74
2022/08/18 14:13:28;;;;;;;8.13;4.20;;;;;;;;;;5038297;28;20041;-73
2022/08/18 14:15:55;;;;;;;5.32;4.15;;;;;;;;;;5039603;28;20426;-73
2022/08/18 14:18:21;;;;;;;8.18;4.40;;;;;;;;;;5039647;28;20102;-73
2022/08/18 14:28:59;;;;;;;7.57;4.70;;;;;;;;;;5039969;28;20523;-75
2022/08/18 14:31:24;;;;;;;9.63;5.60;;;;;;;;;;5038360;28;20049;-75
2022/08/18 14:33:49;;;;;;;9.68;5.00;;;;;;;;;;5039541;28;20111;-74
2022/08/18 14:36:15;;;;;;;7.10;4.97;;;;;;;;;;5038878;28;20179;-73
2022/08/18 14:38:41;;;;;;;5.97;5.38;;;;;;;;;;5040236;28;20048;-74
2022/08/18 14:41:09;;;;;;;5.53;4.53;;;;;;;;;;5038339;28;20106;-71
2022/08/18 14:43:36;;;;;;;7.47;4.55;;;;;;;;;;5039912;28;20080;-75
2022/08/18 14:46:02;;;;;;;7.07;4.68;;;;;;;;;;5039474;28;20044;-75
2022/08/18 14:48:28;;;;;;;7.85;4.80;;;;;;;;;;5038114;28;20060;-75
2022/08/18 14:50:55;;;;;;;8.63;4.70;;;;;;;;;;5021412;28;20048;-75
2022/08/18 14:53:26;;;;;;;6.88;5.75;;;;;;;;;;5042155;28;20072;-73
2022/08/18 14:55:53;;;;;;;;;;;;;;;;;;5044042;28;20053;-74
2022/08/18 14:58:20;;;;;;;6.03;4.53;;;;;;;;;;5044594;28;19928;-75
2022/08/18 15:00:46;;;;;;;5.65;4.43;;;;;;;;;;5046802;28;20136;-74
2022/08/18 15:03:12;;;;;;;5.95;4.65;;;;;;;;;;5043793;28;20131;-73
2022/08/18 15:05:37;;;;;;;5.75;4.55;;;;;;;;;;5042694;28;20053;-75
2022/08/18 15:08:03;;;;;;;4.97;4.20;;;;;;;;;;5025554;28;20041;-74
2022/08/18 15:10:30;;;;;;;5.15;4.07;;;;;;;;;;5041081;28;20052;-73
2022/08/18 15:12:58;;;;;;;7.70;3.97;;;;;;;;;;5043348;28;20041;-75
2022/08/18 15:15:24;;;;;;;7.55;4.22;;;;;;;;;;5043039;28;20044;-74
2022/08/18 15:17:50;;;;;;;5.05;4.22;;;;;;;;;;5042702;28;20056;-73
2022/08/18 15:20:16;;;;;;;7.00;4.57;;;;;;;;;;5043039;28;21162;-75
2022/08/18 15:25:41;;;;;;;4.43;4.03;;;;;;;;;;4988121;28;20050;-75
2022/08/18 15:28:19;;;;;;;55.33;7.10;;;;;;;;;;5041662;28;20037;-75
2022/08/18 15:30:47;;;;;;;5.82;4.15;;;;;;;;;;5024545;28;20499;-75
2022/08/18 15:33:14;;;;;;;5.00;4.53;;;;;;;;;;5041267;28;20041;-74
2022/08/18 15:35:46;;;;;;;9.10;4.78;;;;;;;;;;5043197;28;20044;-75